sensor_id;sensor_type;location;lat;lon;timestamp;P1;durP1;ratioP1;P2;durP2;ratioP2
37647;SDS011;23490;53.656;10.076;2023-04-25T00:02:08;11.82;;;4.05;;
37647;SDS011;23490;53.656;10.076;2023-04-25T00:04:34;8.80;;;3.33;;
37647;SDS011;23490;53.656;10.076;2023-04-25T00:06:59;8.15;;;4.13;;
37647;SDS011;23490;53.656;10.076;2023-04-25T00:09:27;6.68;;;3.72;;
37647;SDS011;23490;53.656;10.076;2023-04-25T00:11:52;11.02;;;4.15;;
37647;SDS011;23490;53.656;10.076;2023-04-25T00:14:18;13.98;;;3.58;;
37647;SDS011;23490;53.656;10.076;2023-04-25T00:16:43;13.70;;;4.03;;
37647;SDS011;23490;53.656;10.076;2023-04-25T00:19:09;9.40;;;4.32;;
37647;SDS011;23490;53.656;10.076;2023-04-25T00:21:34;14.27;;;5.45;;
37647;SDS011;23490;53.656;10.076;2023-04-25T00:24:00;11.40;;;4.10;;
37647;SDS011;23490;53.656;10.076;2023-04-25T00:26:27;9.63;;;3.10;;
37647;SDS011;23490;53.656;10.076;2023-04-25T00:28:52;14.88;;;3.63;;
37647;SDS011;23490;53.656;10.076;2023-04-25T00:31:18;13.55;;;2.83;;
37647;SDS011;23490;53.656;10.076;2023-04-25T00:33:43;14.57;;;3.20;;
37647;SDS011;23490;53.656;10.076;2023-04-25T00:36:08;20.00;;;3.95;;
37647;SDS011;23490;53.656;10.076;2023-04-25T00:38:34;14.27;;;3.17;;
37647;SDS011;23490;53.656;10.076;2023-04-25T00:41:00;13.13;;;3.40;;
37647;SDS011;23490;53.656;10.076;2023-04-25T00:43:26;19.27;;;4.57;;
37647;SDS011;23490;53.656;10.076;2023-04-25T00:45:52;21.70;;;4.47;;
37647;SDS011;23490;53.656;10.076;2023-04-25T00:48:19;14.68;;;4.05;;
37647;SDS011;23490;53.656;10.076;2023-04-25T00:50:51;11.73;;;2.70;;
37647;SDS011;23490;53.656;10.076;2023-04-25T00:53:22;13.00;;;3.05;;
37647;SDS011;23490;53.656;10.076;2023-04-25T00:55:48;20.95;;;4.15;;
37647;SDS011;23490;53.656;10.076;2023-04-25T00:58:16;11.40;;;2.63;;
37647;SDS011;23490;53.656;10.076;2023-04-25T01:00:42;20.02;;;3.72;;
37647;SDS011;23490;53.656;10.076;2023-04-25T01:03:10;12.65;;;3.58;;
37647;SDS011;23490;53.656;10.076;2023-04-25T01:05:36;18.50;;;3.45;;
37647;SDS011;23490;53.656;10.076;2023-04-25T01:08:01;20.63;;;3.47;;
37647;SDS011;23490;53.656;10.076;2023-04-25T01:10:26;12.95;;;2.58;;
37647;SDS011;23490;53.656;10.076;2023-04-25T01:12:52;18.38;;;2.92;;
37647;SDS011;23490;53.656;10.076;2023-04-25T01:15:17;9.82;;;3.65;;
37647;SDS011;23490;53.656;10.076;2023-04-25T01:17:44;14.55;;;3.58;;
37647;SDS011;23490;53.656;10.076;2023-04-25T01:20:11;18.63;;;3.38;;
37647;SDS011;23490;53.656;10.076;2023-04-25T01:22:36;17.70;;;3.60;;
37647;SDS011;23490;53.656;10.076;2023-04-25T01:25:03;12.18;;;3.53;;
37647;SDS011;23490;53.656;10.076;2023-04-25T01:27:29;17.33;;;3.58;;
37647;SDS011;23490;53.656;10.076;2023-04-25T01:29:55;21.05;;;3.67;;
37647;SDS011;23490;53.656;10.076;2023-04-25T01:32:22;21.05;;;3.70;;
37647;SDS011;23490;53.656;10.076;2023-04-25T01:34:48;19.98;;;4.22;;
37647;SDS011;23490;53.656;10.076;2023-04-25T01:37:14;20.65;;;3.40;;
37647;SDS011;23490;53.656;10.076;2023-04-25T01:39:40;37.60;;;4.18;;
37647;SDS011;23490;53.656;10.076;2023-04-25T01:42:06;17.52;;;3.97;;
37647;SDS011;23490;53.656;10.076;2023-04-25T01:44:32;15.80;;;3.53;;
37647;SDS011;23490;53.656;10.076;2023-04-25T01:46:57;15.73;;;3.97;;
37647;SDS011;23490;53.656;10.076;2023-04-25T01:49:24;22.38;;;4.82;;
37647;SDS011;23490;53.656;10.076;2023-04-25T01:51:50;17.38;;;4.07;;
37647;SDS011;23490;53.656;10.076;2023-04-25T01:54:17;18.35;;;4.25;;
37647;SDS011;23490;53.656;10.076;2023-04-25T01:56:43;24.70;;;3.90;;
37647;SDS011;23490;53.656;10.076;2023-04-25T01:59:08;20.65;;;3.92;;
37647;SDS011;23490;53.656;10.076;2023-04-25T02:01:34;11.15;;;3.58;;
37647;SDS011;23490;53.656;10.076;2023-04-25T02:03:59;20.75;;;3.90;;
37647;SDS011;23490;53.656;10.076;2023-04-25T02:06:24;16.50;;;3.72;;
37647;SDS011;23490;53.656;10.076;2023-04-25T02:08:51;17.80;;;3.97;;
37647;SDS011;23490;53.656;10.076;2023-04-25T02:11:18;13.25;;;3.15;;
37647;SDS011;23490;53.656;10.076;2023-04-25T02:13:43;13.45;;;3.70;;
37647;SDS011;23490;53.656;10.076;2023-04-25T02:16:09;12.57;;;3.35;;
37647;SDS011;23490;53.656;10.076;2023-04-25T02:18:34;11.93;;;3.22;;
37647;SDS011;23490;53.656;10.076;2023-04-25T02:21:02;12.82;;;2.75;;
37647;SDS011;23490;53.656;10.076;2023-04-25T02:23:28;14.05;;;2.83;;
37647;SDS011;23490;53.656;10.076;2023-04-25T02:25:54;15.25;;;3.47;;
37647;SDS011;23490;53.656;10.076;2023-04-25T02:28:23;11.02;;;2.88;;
37647;SDS011;23490;53.656;10.076;2023-04-25T02:30:49;11.43;;;2.92;;
37647;SDS011;23490;53.656;10.076;2023-04-25T02:33:15;14.45;;;3.40;;
37647;SDS011;23490;53.656;10.076;2023-04-25T02:35:41;11.88;;;3.08;;
37647;SDS011;23490;53.656;10.076;2023-04-25T02:38:07;22.05;;;3.88;;
37647;SDS011;23490;53.656;10.076;2023-04-25T02:40:33;16.85;;;3.58;;
37647;SDS011;23490;53.656;10.076;2023-04-25T02:42:58;15.27;;;3.45;;
37647;SDS011;23490;53.656;10.076;2023-04-25T02:45:24;13.35;;;3.13;;
37647;SDS011;23490;53.656;10.076;2023-04-25T02:47:49;10.63;;;2.40;;
37647;SDS011;23490;53.656;10.076;2023-04-25T02:50:14;16.27;;;3.35;;
37647;SDS011;23490;53.656;10.076;2023-04-25T02:52:40;14.27;;;3.45;;
37647;SDS011;23490;53.656;10.076;2023-04-25T02:55:05;17.45;;;3.45;;
37647;SDS011;23490;53.656;10.076;2023-04-25T02:57:31;14.20;;;3.30;;
37647;SDS011;23490;53.656;10.076;2023-04-25T02:59:56;14.65;;;3.72;;
37647;SDS011;23490;53.656;10.076;2023-04-25T03:02:22;15.55;;;3.28;;
37647;SDS011;23490;53.656;10.076;2023-04-25T03:04:47;13.48;;;3.05;;
37647;SDS011;23490;53.656;10.076;2023-04-25T03:07:13;15.32;;;2.65;;
37647;SDS011;23490;53.656;10.076;2023-04-25T03:09:38;14.98;;;3.53;;
37647;SDS011;23490;53.656;10.076;2023-04-25T03:12:04;13.07;;;3.20;;
37647;SDS011;23490;53.656;10.076;2023-04-25T03:14:29;14.90;;;3.67;;
37647;SDS011;23490;53.656;10.076;2023-04-25T03:16:55;11.27;;;2.90;;
37647;SDS011;23490;53.656;10.076;2023-04-25T03:19:23;15.27;;;3.60;;
37647;SDS011;23490;53.656;10.076;2023-04-25T03:21:49;14.00;;;3.53;;
37647;SDS011;23490;53.656;10.076;2023-04-25T03:24:15;12.60;;;3.15;;
37647;SDS011;23490;53.656;10.076;2023-04-25T03:26:40;11.10;;;3.03;;
37647;SDS011;23490;53.656;10.076;2023-04-25T03:29:07;12.23;;;4.05;;
37647;SDS011;23490;53.656;10.076;2023-04-25T03:31:32;10.25;;;1.92;;
37647;SDS011;23490;53.656;10.076;2023-04-25T03:33:58;13.20;;;2.88;;
37647;SDS011;23490;53.656;10.076;2023-04-25T03:36:24;14.52;;;3.20;;
37647;SDS011;23490;53.656;10.076;2023-04-25T03:38:49;10.57;;;3.00;;
37647;SDS011;23490;53.656;10.076;2023-04-25T03:41:15;13.48;;;3.17;;
37647;SDS011;23490;53.656;10.076;2023-04-25T03:43:40;17.75;;;3.30;;
37647;SDS011;23490;53.656;10.076;2023-04-25T03:46:06;13.25;;;2.85;;
37647;SDS011;23490;53.656;10.076;2023-04-25T03:48:31;13.15;;;2.35;;
37647;SDS011;23490;53.656;10.076;2023-04-25T03:50:56;13.27;;;2.83;;
37647;SDS011;23490;53.656;10.076;2023-04-25T03:53:22;16.20;;;3.78;;
37647;SDS011;23490;53.656;10.076;2023-04-25T03:55:47;10.23;;;3.03;;
37647;SDS011;23490;53.656;10.076;2023-04-25T03:58:12;14.32;;;2.60;;
37647;SDS011;23490;53.656;10.076;2023-04-25T04:00:38;15.75;;;3.05;;
37647;SDS011;23490;53.656;10.076;2023-04-25T04:03:05;13.00;;;3.33;;
37647;SDS011;23490;53.656;10.076;2023-04-25T04:05:30;17.88;;;2.78;;
37647;SDS011;23490;53.656;10.076;2023-04-25T04:07:56;13.18;;;2.55;;
37647;SDS011;23490;53.656;10.076;2023-04-25T04:10:21;11.23;;;2.72;;
37647;SDS011;23490;53.656;10.076;2023-04-25T04:12:46;13.75;;;3.13;;
37647;SDS011;23490;53.656;10.076;2023-04-25T04:15:12;13.00;;;2.67;;
37647;SDS011;23490;53.656;10.076;2023-04-25T04:17:38;11.77;;;2.72;;
37647;SDS011;23490;53.656;10.076;2023-04-25T04:20:06;14.30;;;3.75;;
37647;SDS011;23490;53.656;10.076;2023-04-25T04:22:33;9.90;;;3.05;;
37647;SDS011;23490;53.656;10.076;2023-04-25T04:24:58;12.63;;;2.42;;
37647;SDS011;23490;53.656;10.076;2023-04-25T04:27:23;13.30;;;2.25;;
37647;SDS011;23490;53.656;10.076;2023-04-25T04:29:49;13.13;;;2.42;;
37647;SDS011;23490;53.656;10.076;2023-04-25T04:32:17;13.80;;;3.35;;
37647;SDS011;23490;53.656;10.076;2023-04-25T04:34:42;10.52;;;2.50;;
37647;SDS011;23490;53.656;10.076;2023-04-25T04:37:08;15.10;;;3.40;;
37647;SDS011;23490;53.656;10.076;2023-04-25T04:39:34;10.00;;;2.35;;
37647;SDS011;23490;53.656;10.076;2023-04-25T04:42:00;13.40;;;3.28;;
37647;SDS011;23490;53.656;10.076;2023-04-25T04:44:27;13.02;;;2.17;;
37647;SDS011;23490;53.656;10.076;2023-04-25T04:46:53;12.10;;;3.25;;
37647;SDS011;23490;53.656;10.076;2023-04-25T04:49:21;11.20;;;3.08;;
37647;SDS011;23490;53.656;10.076;2023-04-25T04:51:46;10.93;;;2.33;;
37647;SDS011;23490;53.656;10.076;2023-04-25T04:54:14;14.38;;;3.72;;
37647;SDS011;23490;53.656;10.076;2023-04-25T04:56:40;10.45;;;2.72;;
37647;SDS011;23490;53.656;10.076;2023-04-25T04:59:07;11.50;;;3.10;;
37647;SDS011;23490;53.656;10.076;2023-04-25T05:01:32;10.20;;;2.78;;
37647;SDS011;23490;53.656;10.076;2023-04-25T05:04:00;9.95;;;2.25;;
37647;SDS011;23490;53.656;10.076;2023-04-25T05:06:26;10.75;;;2.78;;
37647;SDS011;23490;53.656;10.076;2023-04-25T05:08:53;14.05;;;2.70;;
37647;SDS011;23490;53.656;10.076;2023-04-25T05:11:19;11.38;;;2.97;;
37647;SDS011;23490;53.656;10.076;2023-04-25T05:13:45;15.40;;;3.38;;
37647;SDS011;23490;53.656;10.076;2023-04-25T05:16:11;12.88;;;2.70;;
37647;SDS011;23490;53.656;10.076;2023-04-25T05:18:38;7.30;;;2.65;;
37647;SDS011;23490;53.656;10.076;2023-04-25T05:21:04;10.88;;;2.60;;
37647;SDS011;23490;53.656;10.076;2023-04-25T05:23:30;10.65;;;2.00;;
37647;SDS011;23490;53.656;10.076;2023-04-25T05:25:56;9.63;;;2.38;;
37647;SDS011;23490;53.656;10.076;2023-04-25T05:28:21;9.18;;;2.17;;
37647;SDS011;23490;53.656;10.076;2023-04-25T05:30:47;7.80;;;1.75;;
37647;SDS011;23490;53.656;10.076;2023-04-25T05:33:13;7.70;;;2.17;;
37647;SDS011;23490;53.656;10.076;2023-04-25T05:35:38;12.38;;;2.53;;
37647;SDS011;23490;53.656;10.076;2023-04-25T05:38:04;12.32;;;2.60;;
37647;SDS011;23490;53.656;10.076;2023-04-25T05:40:29;7.68;;;2.05;;
37647;SDS011;23490;53.656;10.076;2023-04-25T05:42:56;12.38;;;2.10;;
37647;SDS011;23490;53.656;10.076;2023-04-25T05:45:22;8.88;;;2.00;;
37647;SDS011;23490;53.656;10.076;2023-04-25T05:47:48;7.13;;;1.70;;
37647;SDS011;23490;53.656;10.076;2023-04-25T05:50:13;11.18;;;2.67;;
37647;SDS011;23490;53.656;10.076;2023-04-25T05:52:39;9.98;;;2.03;;
37647;SDS011;23490;53.656;10.076;2023-04-25T05:55:05;8.55;;;2.47;;
37647;SDS011;23490;53.656;10.076;2023-04-25T05:57:30;11.50;;;2.65;;
37647;SDS011;23490;53.656;10.076;2023-04-25T05:59:56;12.23;;;2.80;;
37647;SDS011;23490;53.656;10.076;2023-04-25T06:02:21;10.30;;;2.00;;
37647;SDS011;23490;53.656;10.076;2023-04-25T06:04:49;8.38;;;1.90;;
37647;SDS011;23490;53.656;10.076;2023-04-25T06:07:15;9.60;;;1.95;;
37647;SDS011;23490;53.656;10.076;2023-04-25T06:09:40;8.10;;;2.30;;
37647;SDS011;23490;53.656;10.076;2023-04-25T06:12:06;13.90;;;2.42;;
37647;SDS011;23490;53.656;10.076;2023-04-25T06:14:32;9.30;;;1.90;;
37647;SDS011;23490;53.656;10.076;2023-04-25T06:16:58;7.55;;;1.60;;
37647;SDS011;23490;53.656;10.076;2023-04-25T06:19:24;12.93;;;2.75;;
37647;SDS011;23490;53.656;10.076;2023-04-25T06:21:49;12.57;;;3.00;;
37647;SDS011;23490;53.656;10.076;2023-04-25T06:24:15;8.88;;;1.95;;
37647;SDS011;23490;53.656;10.076;2023-04-25T06:26:40;8.20;;;2.03;;
37647;SDS011;23490;53.656;10.076;2023-04-25T06:29:06;9.30;;;2.45;;
37647;SDS011;23490;53.656;10.076;2023-04-25T06:31:31;8.82;;;1.80;;
37647;SDS011;23490;53.656;10.076;2023-04-25T06:33:58;10.57;;;2.63;;
37647;SDS011;23490;53.656;10.076;2023-04-25T06:36:24;13.43;;;2.60;;
37647;SDS011;23490;53.656;10.076;2023-04-25T06:38:52;11.25;;;2.72;;
37647;SDS011;23490;53.656;10.076;2023-04-25T06:41:19;12.52;;;2.00;;
37647;SDS011;23490;53.656;10.076;2023-04-25T06:43:44;14.95;;;2.63;;
37647;SDS011;23490;53.656;10.076;2023-04-25T06:46:11;11.63;;;2.95;;
37647;SDS011;23490;53.656;10.076;2023-04-25T06:48:37;9.82;;;2.35;;
37647;SDS011;23490;53.656;10.076;2023-04-25T06:51:03;10.57;;;3.20;;
37647;SDS011;23490;53.656;10.076;2023-04-25T06:53:28;12.10;;;2.92;;
37647;SDS011;23490;53.656;10.076;2023-04-25T06:55:54;10.13;;;2.20;;
37647;SDS011;23490;53.656;10.076;2023-04-25T06:58:19;10.77;;;2.28;;
37647;SDS011;23490;53.656;10.076;2023-04-25T07:00:45;12.40;;;2.33;;
37647;SDS011;23490;53.656;10.076;2023-04-25T07:03:12;13.57;;;2.22;;
37647;SDS011;23490;53.656;10.076;2023-04-25T07:05:40;11.45;;;2.63;;
37647;SDS011;23490;53.656;10.076;2023-04-25T07:08:06;14.73;;;3.13;;
37647;SDS011;23490;53.656;10.076;2023-04-25T07:10:31;9.68;;;2.67;;
37647;SDS011;23490;53.656;10.076;2023-04-25T07:12:59;13.23;;;2.25;;
37647;SDS011;23490;53.656;10.076;2023-04-25T07:15:24;7.35;;;1.67;;
37647;SDS011;23490;53.656;10.076;2023-04-25T07:17:49;12.55;;;2.78;;
37647;SDS011;23490;53.656;10.076;2023-04-25T07:20:17;10.50;;;2.63;;
37647;SDS011;23490;53.656;10.076;2023-04-25T07:22:45;7.55;;;1.05;;
37647;SDS011;23490;53.656;10.076;2023-04-25T07:25:10;10.23;;;2.15;;
37647;SDS011;23490;53.656;10.076;2023-04-25T07:27:36;8.43;;;1.70;;
37647;SDS011;23490;53.656;10.076;2023-04-25T07:30:03;6.75;;;2.10;;
37647;SDS011;23490;53.656;10.076;2023-04-25T07:32:29;8.18;;;2.03;;
37647;SDS011;23490;53.656;10.076;2023-04-25T07:34:55;6.22;;;1.67;;
37647;SDS011;23490;53.656;10.076;2023-04-25T07:37:21;7.50;;;2.05;;
37647;SDS011;23490;53.656;10.076;2023-04-25T07:39:46;6.35;;;1.80;;
37647;SDS011;23490;53.656;10.076;2023-04-25T07:42:12;6.05;;;1.35;;
37647;SDS011;23490;53.656;10.076;2023-04-25T07:44:38;11.57;;;2.80;;
37647;SDS011;23490;53.656;10.076;2023-04-25T07:47:05;7.70;;;1.77;;
37647;SDS011;23490;53.656;10.076;2023-04-25T07:49:33;6.45;;;1.30;;
37647;SDS011;23490;53.656;10.076;2023-04-25T07:52:01;6.75;;;2.13;;
37647;SDS011;23490;53.656;10.076;2023-04-25T07:54:27;5.38;;;1.88;;
37647;SDS011;23490;53.656;10.076;2023-04-25T07:56:55;15.30;;;2.38;;
37647;SDS011;23490;53.656;10.076;2023-04-25T07:59:21;6.78;;;2.17;;
37647;SDS011;23490;53.656;10.076;2023-04-25T08:01:46;7.78;;;1.50;;
37647;SDS011;23490;53.656;10.076;2023-04-25T08:04:12;8.77;;;1.70;;
37647;SDS011;23490;53.656;10.076;2023-04-25T08:06:37;17.40;;;2.80;;
37647;SDS011;23490;53.656;10.076;2023-04-25T08:09:03;7.70;;;2.17;;
37647;SDS011;23490;53.656;10.076;2023-04-25T08:11:29;7.85;;;2.30;;
37647;SDS011;23490;53.656;10.076;2023-04-25T08:13:57;11.55;;;2.28;;
37647;SDS011;23490;53.656;10.076;2023-04-25T08:16:22;12.32;;;2.33;;
37647;SDS011;23490;53.656;10.076;2023-04-25T08:18:48;10.07;;;1.23;;
37647;SDS011;23490;53.656;10.076;2023-04-25T08:21:15;9.55;;;2.15;;
37647;SDS011;23490;53.656;10.076;2023-04-25T08:23:41;6.22;;;1.23;;
37647;SDS011;23490;53.656;10.076;2023-04-25T08:26:07;5.13;;;1.35;;
37647;SDS011;23490;53.656;10.076;2023-04-25T08:28:32;4.57;;;0.93;;
37647;SDS011;23490;53.656;10.076;2023-04-25T08:30:58;3.47;;;0.93;;
37647;SDS011;23490;53.656;10.076;2023-04-25T08:33:24;4.72;;;1.02;;
37647;SDS011;23490;53.656;10.076;2023-04-25T08:35:50;6.18;;;1.10;;
37647;SDS011;23490;53.656;10.076;2023-04-25T08:38:16;5.93;;;1.20;;
37647;SDS011;23490;53.656;10.076;2023-04-25T08:40:43;8.88;;;1.77;;
37647;SDS011;23490;53.656;10.076;2023-04-25T08:43:09;8.63;;;1.42;;
37647;SDS011;23490;53.656;10.076;2023-04-25T08:45:41;6.90;;;1.92;;
37647;SDS011;23490;53.656;10.076;2023-04-25T08:48:07;8.20;;;2.00;;
37647;SDS011;23490;53.656;10.076;2023-04-25T08:50:39;7.17;;;1.80;;
37647;SDS011;23490;53.656;10.076;2023-04-25T08:53:09;16.10;;;1.90;;
37647;SDS011;23490;53.656;10.076;2023-04-25T08:55:41;5.50;;;1.38;;
37647;SDS011;23490;53.656;10.076;2023-04-25T08:58:07;5.90;;;1.45;;
37647;SDS011;23490;53.656;10.076;2023-04-25T09:00:35;6.60;;;1.58;;
37647;SDS011;23490;53.656;10.076;2023-04-25T09:03:01;11.10;;;1.70;;
37647;SDS011;23490;53.656;10.076;2023-04-25T09:05:26;9.10;;;1.67;;
37647;SDS011;23490;53.656;10.076;2023-04-25T09:07:54;9.23;;;2.00;;
37647;SDS011;23490;53.656;10.076;2023-04-25T09:10:21;11.27;;;2.13;;
37647;SDS011;23490;53.656;10.076;2023-04-25T09:13:06;6.95;;;2.13;;
37647;SDS011;23490;53.656;10.076;2023-04-25T09:18:21;10.88;;;1.80;;
37647;SDS011;23490;53.656;10.076;2023-04-25T09:20:49;11.50;;;1.90;;
37647;SDS011;23490;53.656;10.076;2023-04-25T09:23:15;7.78;;;1.83;;
37647;SDS011;23490;53.656;10.076;2023-04-25T09:25:40;9.35;;;1.40;;
37647;SDS011;23490;53.656;10.076;2023-04-25T09:28:07;7.38;;;1.58;;
37647;SDS011;23490;53.656;10.076;2023-04-25T09:30:34;8.80;;;1.98;;
37647;SDS011;23490;53.656;10.076;2023-04-25T09:33:04;12.30;;;1.40;;
37647;SDS011;23490;53.656;10.076;2023-04-25T09:35:40;16.80;;;1.90;;
37647;SDS011;23490;53.656;10.076;2023-04-25T09:38:11;8.93;;;1.15;;
37647;SDS011;23490;53.656;10.076;2023-04-25T09:40:41;10.60;;;2.17;;
37647;SDS011;23490;53.656;10.076;2023-04-25T09:43:18;10.13;;;2.65;;
37647;SDS011;23490;53.656;10.076;2023-04-25T09:45:45;7.93;;;1.25;;
37647;SDS011;23490;53.656;10.076;2023-04-25T09:48:18;9.95;;;1.50;;
37647;SDS011;23490;53.656;10.076;2023-04-25T09:53:34;6.82;;;1.35;;
37647;SDS011;23490;53.656;10.076;2023-04-25T09:56:02;8.20;;;1.65;;
37647;SDS011;23490;53.656;10.076;2023-04-25T09:58:33;5.47;;;1.50;;
37647;SDS011;23490;53.656;10.076;2023-04-25T10:01:02;5.93;;;1.45;;
37647;SDS011;23490;53.656;10.076;2023-04-25T10:03:33;6.30;;;1.13;;
37647;SDS011;23490;53.656;10.076;2023-04-25T10:06:00;5.95;;;1.25;;
37647;SDS011;23490;53.656;10.076;2023-04-25T10:08:33;8.48;;;1.70;;
37647;SDS011;23490;53.656;10.076;2023-04-25T10:11:04;4.28;;;0.98;;
37647;SDS011;23490;53.656;10.076;2023-04-25T10:13:31;6.00;;;1.08;;
37647;SDS011;23490;53.656;10.076;2023-04-25T10:16:00;6.60;;;1.30;;
37647;SDS011;23490;53.656;10.076;2023-04-25T10:18:27;8.65;;;1.42;;
37647;SDS011;23490;53.656;10.076;2023-04-25T10:21:01;7.18;;;0.93;;
37647;SDS011;23490;53.656;10.076;2023-04-25T10:23:29;2.85;;;0.75;;
37647;SDS011;23490;53.656;10.076;2023-04-25T10:26:03;6.18;;;1.05;;
37647;SDS011;23490;53.656;10.076;2023-04-25T10:28:29;5.88;;;1.23;;
37647;SDS011;23490;53.656;10.076;2023-04-25T10:31:15;5.40;;;1.10;;
37647;SDS011;23490;53.656;10.076;2023-04-25T10:33:41;8.68;;;1.63;;
37647;SDS011;23490;53.656;10.076;2023-04-25T10:36:12;6.82;;;1.55;;
37647;SDS011;23490;53.656;10.076;2023-04-25T10:38:39;5.05;;;1.42;;
37647;SDS011;23490;53.656;10.076;2023-04-25T10:41:06;4.95;;;1.00;;
37647;SDS011;23490;53.656;10.076;2023-04-25T10:43:39;5.82;;;1.30;;
37647;SDS011;23490;53.656;10.076;2023-04-25T10:46:27;4.25;;;1.38;;
37647;SDS011;23490;53.656;10.076;2023-04-25T10:48:58;5.63;;;1.20;;
37647;SDS011;23490;53.656;10.076;2023-04-25T10:51:27;4.63;;;1.08;;
37647;SDS011;23490;53.656;10.076;2023-04-25T10:56:30;5.13;;;1.17;;
37647;SDS011;23490;53.656;10.076;2023-04-25T10:59:06;7.28;;;1.17;;
37647;SDS011;23490;53.656;10.076;2023-04-25T11:01:39;3.83;;;0.82;;
37647;SDS011;23490;53.656;10.076;2023-04-25T11:04:28;2.80;;;0.90;;
37647;SDS011;23490;53.656;10.076;2023-04-25T11:07:02;4.65;;;1.40;;
37647;SDS011;23490;53.656;10.076;2023-04-25T11:09:35;7.18;;;1.42;;
37647;SDS011;23490;53.656;10.076;2023-04-25T11:12:04;8.80;;;1.30;;
37647;SDS011;23490;53.656;10.076;2023-04-25T11:14:36;2.35;;;0.40;;
37647;SDS011;23490;53.656;10.076;2023-04-25T11:17:01;3.03;;;1.05;;
37647;SDS011;23490;53.656;10.076;2023-04-25T11:19:27;4.60;;;1.20;;
37647;SDS011;23490;53.656;10.076;2023-04-25T11:21:55;7.15;;;1.20;;
37647;SDS011;23490;53.656;10.076;2023-04-25T11:24:26;6.70;;;0.88;;
37647;SDS011;23490;53.656;10.076;2023-04-25T11:26:53;3.47;;;0.77;;
37647;SDS011;23490;53.656;10.076;2023-04-25T11:29:21;3.47;;;0.85;;
37647;SDS011;23490;53.656;10.076;2023-04-25T11:31:48;5.35;;;1.20;;
37647;SDS011;23490;53.656;10.076;2023-04-25T11:34:17;4.22;;;1.25;;
37647;SDS011;23490;53.656;10.076;2023-04-25T11:36:43;4.00;;;1.30;;
37647;SDS011;23490;53.656;10.076;2023-04-25T11:39:13;6.38;;;1.35;;
37647;SDS011;23490;53.656;10.076;2023-04-25T11:41:41;5.05;;;0.90;;
37647;SDS011;23490;53.656;10.076;2023-04-25T11:44:07;5.22;;;1.27;;
37647;SDS011;23490;53.656;10.076;2023-04-25T11:46:36;4.00;;;1.05;;
37647;SDS011;23490;53.656;10.076;2023-04-25T11:49:02;4.38;;;1.05;;
37647;SDS011;23490;53.656;10.076;2023-04-25T11:51:28;6.32;;;1.13;;
37647;SDS011;23490;53.656;10.076;2023-04-25T11:53:53;5.03;;;0.65;;
37647;SDS011;23490;53.656;10.076;2023-04-25T11:56:19;4.25;;;0.60;;
37647;SDS011;23490;53.656;10.076;2023-04-25T11:58:58;3.28;;;0.70;;
37647;SDS011;23490;53.656;10.076;2023-04-25T12:01:29;4.75;;;0.95;;
37647;SDS011;23490;53.656;10.076;2023-04-25T12:04:18;7.00;;;0.90;;
37647;SDS011;23490;53.656;10.076;2023-04-25T12:06:45;4.25;;;1.05;;
37647;SDS011;23490;53.656;10.076;2023-04-25T12:09:13;3.45;;;0.77;;
37647;SDS011;23490;53.656;10.076;2023-04-25T12:11:44;3.60;;;0.95;;
37647;SDS011;23490;53.656;10.076;2023-04-25T12:16:40;3.78;;;0.82;;
37647;SDS011;23490;53.656;10.076;2023-04-25T12:21:35;4.13;;;1.13;;
37647;SDS011;23490;53.656;10.076;2023-04-25T12:24:17;3.13;;;0.90;;
37647;SDS011;23490;53.656;10.076;2023-04-25T12:26:49;2.72;;;0.70;;
37647;SDS011;23490;53.656;10.076;2023-04-25T12:29:22;4.88;;;1.20;;
37647;SDS011;23490;53.656;10.076;2023-04-25T12:31:50;2.95;;;1.00;;
37647;SDS011;23490;53.656;10.076;2023-04-25T12:34:17;3.78;;;1.05;;
37647;SDS011;23490;53.656;10.076;2023-04-25T12:36:43;5.53;;;0.95;;
37647;SDS011;23490;53.656;10.076;2023-04-25T12:39:13;5.15;;;1.17;;
37647;SDS011;23490;53.656;10.076;2023-04-25T12:41:40;6.13;;;1.00;;
37647;SDS011;23490;53.656;10.076;2023-04-25T12:44:05;5.30;;;1.10;;
37647;SDS011;23490;53.656;10.076;2023-04-25T12:46:31;3.95;;;0.88;;
37647;SDS011;23490;53.656;10.076;2023-04-25T12:48:56;4.85;;;1.10;;
37647;SDS011;23490;53.656;10.076;2023-04-25T12:51:23;5.50;;;1.05;;
37647;SDS011;23490;53.656;10.076;2023-04-25T12:53:51;6.05;;;1.35;;
37647;SDS011;23490;53.656;10.076;2023-04-25T12:56:17;7.88;;;2.42;;
37647;SDS011;23490;53.656;10.076;2023-04-25T12:58:42;7.80;;;1.65;;
37647;SDS011;23490;53.656;10.076;2023-04-25T13:01:09;5.20;;;1.10;;
37647;SDS011;23490;53.656;10.076;2023-04-25T13:03:36;6.07;;;1.58;;
37647;SDS011;23490;53.656;10.076;2023-04-25T13:06:01;6.57;;;0.90;;
37647;SDS011;23490;53.656;10.076;2023-04-25T13:08:27;5.55;;;1.10;;
37647;SDS011;23490;53.656;10.076;2023-04-25T13:10:52;6.45;;;1.35;;
37647;SDS011;23490;53.656;10.076;2023-04-25T13:13:18;5.03;;;1.10;;
37647;SDS011;23490;53.656;10.076;2023-04-25T13:15:45;4.82;;;0.98;;
37647;SDS011;23490;53.656;10.076;2023-04-25T13:18:12;7.75;;;1.33;;
37647;SDS011;23490;53.656;10.076;2023-04-25T13:20:37;6.70;;;1.25;;
37647;SDS011;23490;53.656;10.076;2023-04-25T13:23:02;3.40;;;0.75;;
37647;SDS011;23490;53.656;10.076;2023-04-25T13:25:28;6.20;;;1.23;;
37647;SDS011;23490;53.656;10.076;2023-04-25T13:27:53;2.95;;;0.70;;
37647;SDS011;23490;53.656;10.076;2023-04-25T13:30:18;9.80;;;1.88;;
37647;SDS011;23490;53.656;10.076;2023-04-25T13:32:44;7.88;;;1.45;;
37647;SDS011;23490;53.656;10.076;2023-04-25T13:35:12;7.40;;;1.27;;
37647;SDS011;23490;53.656;10.076;2023-04-25T13:37:39;7.47;;;1.45;;
37647;SDS011;23490;53.656;10.076;2023-04-25T13:40:09;10.23;;;1.35;;
37647;SDS011;23490;53.656;10.076;2023-04-25T13:42:40;4.78;;;1.55;;
37647;SDS011;23490;53.656;10.076;2023-04-25T13:45:06;8.02;;;1.23;;
37647;SDS011;23490;53.656;10.076;2023-04-25T13:47:32;6.15;;;1.38;;
37647;SDS011;23490;53.656;10.076;2023-04-25T13:49:59;12.93;;;1.70;;
37647;SDS011;23490;53.656;10.076;2023-04-25T13:52:28;5.60;;;1.33;;
37647;SDS011;23490;53.656;10.076;2023-04-25T13:54:54;4.20;;;1.33;;
37647;SDS011;23490;53.656;10.076;2023-04-25T13:57:21;8.27;;;1.63;;
37647;SDS011;23490;53.656;10.076;2023-04-25T13:59:48;6.13;;;1.25;;
37647;SDS011;23490;53.656;10.076;2023-04-25T14:02:14;4.25;;;1.30;;
37647;SDS011;23490;53.656;10.076;2023-04-25T14:04:40;4.95;;;1.40;;
37647;SDS011;23490;53.656;10.076;2023-04-25T14:07:05;6.82;;;1.17;;
37647;SDS011;23490;53.656;10.076;2023-04-25T14:09:32;5.68;;;1.20;;
37647;SDS011;23490;53.656;10.076;2023-04-25T14:11:58;3.28;;;0.77;;
37647;SDS011;23490;53.656;10.076;2023-04-25T14:14:23;5.75;;;1.42;;
37647;SDS011;23490;53.656;10.076;2023-04-25T14:16:49;3.70;;;0.95;;
37647;SDS011;23490;53.656;10.076;2023-04-25T14:19:19;4.15;;;1.38;;
37647;SDS011;23490;53.656;10.076;2023-04-25T14:21:45;5.75;;;1.10;;
37647;SDS011;23490;53.656;10.076;2023-04-25T14:24:13;4.47;;;1.30;;
37647;SDS011;23490;53.656;10.076;2023-04-25T14:26:40;7.47;;;1.33;;
37647;SDS011;23490;53.656;10.076;2023-04-25T14:29:06;4.32;;;1.10;;
37647;SDS011;23490;53.656;10.076;2023-04-25T14:31:32;5.25;;;1.10;;
37647;SDS011;23490;53.656;10.076;2023-04-25T14:33:58;2.88;;;0.77;;
37647;SDS011;23490;53.656;10.076;2023-04-25T14:36:24;4.25;;;0.98;;
37647;SDS011;23490;53.656;10.076;2023-04-25T14:38:49;6.18;;;0.85;;
37647;SDS011;23490;53.656;10.076;2023-04-25T14:41:15;5.30;;;0.80;;